sensor_id;sensor_type;location;lat;lon;timestamp;P1;durP1;ratioP1;P2;durP2;ratioP2
32790;SDS011;19143;59.322;14.502;2023-02-24T00:01:48;11.23;;;6.83;;
32790;SDS011;19143;59.322;14.502;2023-02-24T00:04:15;11.57;;;6.80;;
32790;SDS011;19143;59.322;14.502;2023-02-24T00:06:44;10.40;;;6.77;;
32790;SDS011;19143;59.322;14.502;2023-02-24T00:09:12;10.53;;;6.27;;
32790;SDS011;19143;59.322;14.502;2023-02-24T00:11:42;10.90;;;6.57;;
32790;SDS011;19143;59.322;14.502;2023-02-24T00:14:10;11.83;;;6.17;;
32790;SDS011;19143;59.322;14.502;2023-02-24T00:16:40;8.77;;;5.73;;
32790;SDS011;19143;59.322;14.502;2023-02-24T00:19:06;8.37;;;5.27;;
32790;SDS011;19143;59.322;14.502;2023-02-24T00:21:34;8.40;;;5.33;;
32790;SDS011;19143;59.322;14.502;2023-02-24T00:24:02;10.00;;;5.47;;
32790;SDS011;19143;59.322;14.502;2023-02-24T00:26:29;7.13;;;4.67;;
32790;SDS011;19143;59.322;14.502;2023-02-24T00:28:56;7.20;;;4.83;;
32790;SDS011;19143;59.322;14.502;2023-02-24T00:31:27;6.07;;;4.47;;
32790;SDS011;19143;59.322;14.502;2023-02-24T00:33:55;4.90;;;4.17;;
32790;SDS011;19143;59.322;14.502;2023-02-24T00:36:22;5.83;;;4.27;;
32790;SDS011;19143;59.322;14.502;2023-02-24T00:38:49;5.67;;;4.00;;
32790;SDS011;19143;59.322;14.502;2023-02-24T00:41:21;4.80;;;3.77;;
32790;SDS011;19143;59.322;14.502;2023-02-24T00:43:49;5.93;;;4.20;;
32790;SDS011;19143;59.322;14.502;2023-02-24T00:46:17;7.03;;;4.20;;
32790;SDS011;19143;59.322;14.502;2023-02-24T00:48:47;5.37;;;3.57;;
32790;SDS011;19143;59.322;14.502;2023-02-24T00:51:21;4.20;;;3.80;;
32790;SDS011;19143;59.322;14.502;2023-02-24T00:53:48;5.53;;;4.17;;
32790;SDS011;19143;59.322;14.502;2023-02-24T00:56:16;6.57;;;4.30;;
32790;SDS011;19143;59.322;14.502;2023-02-24T00:58:44;5.10;;;4.03;;
32790;SDS011;19143;59.322;14.502;2023-02-24T01:01:11;5.33;;;3.63;;
32790;SDS011;19143;59.322;14.502;2023-02-24T01:03:38;10.40;;;6.27;;
32790;SDS011;19143;59.322;14.502;2023-02-24T01:06:06;8.20;;;5.33;;
32790;SDS011;19143;59.322;14.502;2023-02-24T01:08:32;6.50;;;4.63;;
32790;SDS011;19143;59.322;14.502;2023-02-24T01:11:02;4.27;;;3.43;;
32790;SDS011;19143;59.322;14.502;2023-02-24T01:14:02;5.20;;;4.07;;
32790;SDS011;19143;59.322;14.502;2023-02-24T01:16:29;5.67;;;3.30;;
32790;SDS011;19143;59.322;14.502;2023-02-24T01:18:56;4.67;;;3.67;;
32790;SDS011;19143;59.322;14.502;2023-02-24T01:21:25;3.93;;;3.53;;
32790;SDS011;19143;59.322;14.502;2023-02-24T01:23:52;5.60;;;3.70;;
32790;SDS011;19143;59.322;14.502;2023-02-24T01:26:19;3.60;;;3.30;;
32790;SDS011;19143;59.322;14.502;2023-02-24T01:28:47;3.73;;;2.80;;
32790;SDS011;19143;59.322;14.502;2023-02-24T01:31:15;3.53;;;3.03;;
32790;SDS011;19143;59.322;14.502;2023-02-24T01:33:44;3.47;;;3.17;;
32790;SDS011;19143;59.322;14.502;2023-02-24T01:36:12;3.20;;;2.90;;
32790;SDS011;19143;59.322;14.502;2023-02-24T01:38:39;3.20;;;2.90;;
32790;SDS011;19143;59.322;14.502;2023-02-24T01:41:07;2.97;;;2.70;;
32790;SDS011;19143;59.322;14.502;2023-02-24T01:46:17;3.13;;;2.63;;
32790;SDS011;19143;59.322;14.502;2023-02-24T01:48:47;2.47;;;2.27;;
32790;SDS011;19143;59.322;14.502;2023-02-24T01:51:14;2.27;;;2.07;;
32790;SDS011;19143;59.322;14.502;2023-02-24T01:53:42;3.10;;;2.77;;
32790;SDS011;19143;59.322;14.502;2023-02-24T01:56:09;2.47;;;2.37;;
32790;SDS011;19143;59.322;14.502;2023-02-24T01:58:38;2.67;;;2.47;;
32790;SDS011;19143;59.322;14.502;2023-02-24T02:01:04;2.10;;;2.00;;
32790;SDS011;19143;59.322;14.502;2023-02-24T02:03:35;2.37;;;2.17;;
32790;SDS011;19143;59.322;14.502;2023-02-24T02:06:03;2.20;;;2.00;;
32790;SDS011;19143;59.322;14.502;2023-02-24T02:08:30;2.10;;;2.00;;
32790;SDS011;19143;59.322;14.502;2023-02-24T02:11:01;2.17;;;2.03;;
32790;SDS011;19143;59.322;14.502;2023-02-24T02:13:28;2.07;;;1.97;;
32790;SDS011;19143;59.322;14.502;2023-02-24T02:16:02;2.40;;;2.20;;
32790;SDS011;19143;59.322;14.502;2023-02-24T02:18:32;2.47;;;2.30;;
32790;SDS011;19143;59.322;14.502;2023-02-24T02:21:15;2.43;;;2.20;;
32790;SDS011;19143;59.322;14.502;2023-02-24T02:26:49;2.03;;;1.93;;
32790;SDS011;19143;59.322;14.502;2023-02-24T02:32:22;2.00;;;1.90;;
32790;SDS011;19143;59.322;14.502;2023-02-24T02:34:57;2.30;;;1.70;;
32790;SDS011;19143;59.322;14.502;2023-02-24T02:37:27;1.90;;;1.80;;
32790;SDS011;19143;59.322;14.502;2023-02-24T02:39:58;1.60;;;1.50;;
32790;SDS011;19143;59.322;14.502;2023-02-24T02:42:27;1.60;;;1.60;;
32790;SDS011;19143;59.322;14.502;2023-02-24T02:44:57;1.70;;;1.60;;
32790;SDS011;19143;59.322;14.502;2023-02-24T02:47:31;1.60;;;1.50;;
32790;SDS011;19143;59.322;14.502;2023-02-24T02:50:03;1.60;;;1.50;;
32790;SDS011;19143;59.322;14.502;2023-02-24T02:52:33;1.37;;;1.37;;
32790;SDS011;19143;59.322;14.502;2023-02-24T02:55:02;1.20;;;1.20;;
32790;SDS011;19143;59.322;14.502;2023-02-24T02:57:32;1.30;;;1.30;;
32790;SDS011;19143;59.322;14.502;2023-02-24T03:00:02;1.10;;;1.10;;
32790;SDS011;19143;59.322;14.502;2023-02-24T03:02:35;0.90;;;0.90;;
32790;SDS011;19143;59.322;14.502;2023-02-24T03:05:06;0.80;;;0.80;;
32790;SDS011;19143;59.322;14.502;2023-02-24T03:07:36;1.00;;;1.00;;
32790;SDS011;19143;59.322;14.502;2023-02-24T03:10:06;1.20;;;1.20;;
32790;SDS011;19143;59.322;14.502;2023-02-24T03:12:35;1.07;;;1.07;;
32790;SDS011;19143;59.322;14.502;2023-02-24T03:15:05;1.13;;;1.10;;
32790;SDS011;19143;59.322;14.502;2023-02-24T03:17:34;1.10;;;1.10;;
32790;SDS011;19143;59.322;14.502;2023-02-24T03:20:02;1.00;;;1.00;;
32790;SDS011;19143;59.322;14.502;2023-02-24T03:22:40;0.80;;;0.80;;
32790;SDS011;19143;59.322;14.502;2023-02-24T03:25:09;0.77;;;0.77;;
32790;SDS011;19143;59.322;14.502;2023-02-24T03:27:38;0.70;;;0.70;;
32790;SDS011;19143;59.322;14.502;2023-02-24T03:30:08;0.93;;;0.90;;
32790;SDS011;19143;59.322;14.502;2023-02-24T03:32:40;1.00;;;1.00;;
32790;SDS011;19143;59.322;14.502;2023-02-24T03:35:15;0.90;;;0.90;;
32790;SDS011;19143;59.322;14.502;2023-02-24T03:37:44;0.83;;;0.83;;
32790;SDS011;19143;59.322;14.502;2023-02-24T03:40:12;0.80;;;0.80;;
32790;SDS011;19143;59.322;14.502;2023-02-24T03:42:41;0.77;;;0.77;;
32790;SDS011;19143;59.322;14.502;2023-02-24T03:45:09;0.73;;;0.73;;
32790;SDS011;19143;59.322;14.502;2023-02-24T03:47:36;0.80;;;0.80;;
32790;SDS011;19143;59.322;14.502;2023-02-24T03:50:05;0.70;;;0.70;;
32790;SDS011;19143;59.322;14.502;2023-02-24T03:52:37;0.80;;;0.80;;
32790;SDS011;19143;59.322;14.502;2023-02-24T03:55:17;0.80;;;0.80;;
32790;SDS011;19143;59.322;14.502;2023-02-24T03:57:49;0.60;;;0.60;;
32790;SDS011;19143;59.322;14.502;2023-02-24T04:00:26;0.73;;;0.73;;
32790;SDS011;19143;59.322;14.502;2023-02-24T04:03:00;0.70;;;0.70;;
32790;SDS011;19143;59.322;14.502;2023-02-24T04:05:28;0.80;;;0.80;;
32790;SDS011;19143;59.322;14.502;2023-02-24T04:07:57;0.70;;;0.70;;
32790;SDS011;19143;59.322;14.502;2023-02-24T04:10:28;0.70;;;0.70;;
32790;SDS011;19143;59.322;14.502;2023-02-24T04:12:58;0.60;;;0.60;;
32790;SDS011;19143;59.322;14.502;2023-02-24T04:15:29;0.70;;;0.70;;
32790;SDS011;19143;59.322;14.502;2023-02-24T04:17:57;0.80;;;0.80;;
32790;SDS011;19143;59.322;14.502;2023-02-24T04:20:25;0.70;;;0.70;;
32790;SDS011;19143;59.322;14.502;2023-02-24T04:22:55;0.83;;;0.83;;
32790;SDS011;19143;59.322;14.502;2023-02-24T04:25:23;0.80;;;0.80;;
32790;SDS011;19143;59.322;14.502;2023-02-24T04:27:53;0.90;;;0.90;;
32790;SDS011;19143;59.322;14.502;2023-02-24T04:30:21;0.97;;;0.97;;
32790;SDS011;19143;59.322;14.502;2023-02-24T04:32:48;1.00;;;1.00;;
32790;SDS011;19143;59.322;14.502;2023-02-24T04:35:15;1.03;;;1.03;;
32790;SDS011;19143;59.322;14.502;2023-02-24T04:37:45;0.90;;;0.90;;
32790;SDS011;19143;59.322;14.502;2023-02-24T04:40:12;2.00;;;0.87;;
32790;SDS011;19143;59.322;14.502;2023-02-24T04:42:41;0.90;;;0.90;;
32790;SDS011;19143;59.322;14.502;2023-02-24T04:45:15;1.20;;;1.20;;
32790;SDS011;19143;59.322;14.502;2023-02-24T04:47:43;1.40;;;1.30;;
32790;SDS011;19143;59.322;14.502;2023-02-24T04:50:15;1.10;;;1.10;;
32790;SDS011;19143;59.322;14.502;2023-02-24T04:52:47;1.60;;;1.50;;
32790;SDS011;19143;59.322;14.502;2023-02-24T04:55:14;3.17;;;1.40;;
32790;SDS011;19143;59.322;14.502;2023-02-24T04:57:41;1.10;;;1.10;;
32790;SDS011;19143;59.322;14.502;2023-02-24T05:00:10;1.40;;;1.40;;
32790;SDS011;19143;59.322;14.502;2023-02-24T05:02:46;1.20;;;1.20;;
32790;SDS011;19143;59.322;14.502;2023-02-24T05:05:13;1.57;;;1.47;;
32790;SDS011;19143;59.322;14.502;2023-02-24T05:07:40;1.63;;;1.53;;
32790;SDS011;19143;59.322;14.502;2023-02-24T05:10:11;1.40;;;1.40;;
32790;SDS011;19143;59.322;14.502;2023-02-24T05:12:38;1.13;;;1.13;;
32790;SDS011;19143;59.322;14.502;2023-02-24T05:15:05;1.27;;;1.17;;
32790;SDS011;19143;59.322;14.502;2023-02-24T05:17:32;1.37;;;1.27;;
32790;SDS011;19143;59.322;14.502;2023-02-24T05:20:00;1.27;;;1.23;;
32790;SDS011;19143;59.322;14.502;2023-02-24T05:22:47;1.10;;;1.10;;
32790;SDS011;19143;59.322;14.502;2023-02-24T05:25:15;1.20;;;1.20;;
32790;SDS011;19143;59.322;14.502;2023-02-24T05:27:42;1.73;;;1.67;;
32790;SDS011;19143;59.322;14.502;2023-02-24T05:30:09;1.60;;;1.60;;
32790;SDS011;19143;59.322;14.502;2023-02-24T05:32:36;2.67;;;1.57;;
32790;SDS011;19143;59.322;14.502;2023-02-24T05:35:05;1.60;;;1.60;;
32790;SDS011;19143;59.322;14.502;2023-02-24T05:37:35;1.70;;;1.60;;
32790;SDS011;19143;59.322;14.502;2023-02-24T05:40:03;1.80;;;1.70;;
32790;SDS011;19143;59.322;14.502;2023-02-24T05:42:34;1.43;;;1.40;;
32790;SDS011;19143;59.322;14.502;2023-02-24T05:45:00;1.80;;;1.70;;
32790;SDS011;19143;59.322;14.502;2023-02-24T05:47:29;1.43;;;1.43;;
32790;SDS011;19143;59.322;14.502;2023-02-24T05:49:56;1.47;;;1.40;;
32790;SDS011;19143;59.322;14.502;2023-02-24T05:52:24;1.67;;;1.57;;
32790;SDS011;19143;59.322;14.502;2023-02-24T05:54:51;1.80;;;1.67;;
32790;SDS011;19143;59.322;14.502;2023-02-24T05:57:19;2.90;;;1.53;;
32790;SDS011;19143;59.322;14.502;2023-02-24T05:59:49;2.10;;;1.63;;
32790;SDS011;19143;59.322;14.502;2023-02-24T06:02:16;3.83;;;1.73;;
32790;SDS011;19143;59.322;14.502;2023-02-24T06:04:51;1.80;;;1.70;;
32790;SDS011;19143;59.322;14.502;2023-02-24T06:07:20;1.60;;;1.50;;
32790;SDS011;19143;59.322;14.502;2023-02-24T06:09:50;1.87;;;1.60;;
32790;SDS011;19143;59.322;14.502;2023-02-24T06:12:18;2.73;;;1.40;;
32790;SDS011;19143;59.322;14.502;2023-02-24T06:14:44;1.60;;;1.50;;
32790;SDS011;19143;59.322;14.502;2023-02-24T06:17:11;1.53;;;1.43;;
32790;SDS011;19143;59.322;14.502;2023-02-24T06:19:48;1.40;;;1.33;;
32790;SDS011;19143;59.322;14.502;2023-02-24T06:22:16;1.40;;;1.30;;
32790;SDS011;19143;59.322;14.502;2023-02-24T06:24:43;1.50;;;1.40;;
32790;SDS011;19143;59.322;14.502;2023-02-24T06:27:12;1.53;;;1.43;;
32790;SDS011;19143;59.322;14.502;2023-02-24T06:29:42;1.40;;;1.40;;
32790;SDS011;19143;59.322;14.502;2023-02-24T06:32:09;1.10;;;1.10;;
32790;SDS011;19143;59.322;14.502;2023-02-24T06:34:36;1.40;;;1.40;;
32790;SDS011;19143;59.322;14.502;2023-02-24T06:37:03;1.10;;;1.10;;
32790;SDS011;19143;59.322;14.502;2023-02-24T06:39:31;1.10;;;1.10;;
32790;SDS011;19143;59.322;14.502;2023-02-24T06:41:59;1.40;;;1.30;;
32790;SDS011;19143;59.322;14.502;2023-02-24T06:44:29;1.13;;;1.13;;
32790;SDS011;19143;59.322;14.502;2023-02-24T06:46:56;0.90;;;0.90;;
32790;SDS011;19143;59.322;14.502;2023-02-24T06:49:23;1.40;;;1.40;;
32790;SDS011;19143;59.322;14.502;2023-02-24T06:51:51;3.03;;;1.20;;
32790;SDS011;19143;59.322;14.502;2023-02-24T06:54:19;1.20;;;1.20;;
32790;SDS011;19143;59.322;14.502;2023-02-24T06:56:46;1.33;;;1.23;;
32790;SDS011;19143;59.322;14.502;2023-02-24T06:59:13;0.90;;;0.90;;
32790;SDS011;19143;59.322;14.502;2023-02-24T07:01:47;1.13;;;1.13;;
32790;SDS011;19143;59.322;14.502;2023-02-24T07:04:14;1.00;;;1.00;;
32790;SDS011;19143;59.322;14.502;2023-02-24T07:06:46;1.00;;;1.00;;
32790;SDS011;19143;59.322;14.502;2023-02-24T07:09:14;0.90;;;0.90;;
32790;SDS011;19143;59.322;14.502;2023-02-24T07:11:41;1.00;;;1.00;;
32790;SDS011;19143;59.322;14.502;2023-02-24T07:14:10;1.10;;;1.10;;
32790;SDS011;19143;59.322;14.502;2023-02-24T07:16:37;1.10;;;1.10;;
32790;SDS011;19143;59.322;14.502;2023-02-24T07:19:09;1.10;;;1.10;;
32790;SDS011;19143;59.322;14.502;2023-02-24T07:21:38;1.33;;;1.23;;
32790;SDS011;19143;59.322;14.502;2023-02-24T07:24:05;1.50;;;1.50;;
32790;SDS011;19143;59.322;14.502;2023-02-24T07:26:32;1.70;;;1.60;;
32790;SDS011;19143;59.322;14.502;2023-02-24T07:28:59;3.37;;;2.40;;
32790;SDS011;19143;59.322;14.502;2023-02-24T07:31:30;4.40;;;1.93;;
32790;SDS011;19143;59.322;14.502;2023-02-24T07:33:58;2.43;;;2.23;;
32790;SDS011;19143;59.322;14.502;2023-02-24T07:36:27;1.83;;;1.73;;
32790;SDS011;19143;59.322;14.502;2023-02-24T07:38:56;2.70;;;2.13;;
32790;SDS011;19143;59.322;14.502;2023-02-24T07:41:24;2.37;;;2.17;;
32790;SDS011;19143;59.322;14.502;2023-02-24T07:43:52;2.63;;;2.43;;
32790;SDS011;19143;59.322;14.502;2023-02-24T07:46:22;2.50;;;2.30;;
32790;SDS011;19143;59.322;14.502;2023-02-24T07:48:49;2.83;;;2.53;;
32790;SDS011;19143;59.322;14.502;2023-02-24T07:51:17;4.13;;;3.10;;
32790;SDS011;19143;59.322;14.502;2023-02-24T07:53:48;3.90;;;3.00;;
32790;SDS011;19143;59.322;14.502;2023-02-24T07:56:17;9.03;;;3.80;;
32790;SDS011;19143;59.322;14.502;2023-02-24T07:58:44;8.57;;;3.80;;
32790;SDS011;19143;59.322;14.502;2023-02-24T08:01:14;5.10;;;3.20;;
32790;SDS011;19143;59.322;14.502;2023-02-24T08:03:47;2.90;;;2.67;;
32790;SDS011;19143;59.322;14.502;2023-02-24T08:06:22;5.80;;;2.83;;
32790;SDS011;19143;59.322;14.502;2023-02-24T08:08:57;5.20;;;3.30;;
32790;SDS011;19143;59.322;14.502;2023-02-24T08:11:24;5.57;;;3.73;;
32790;SDS011;19143;59.322;14.502;2023-02-24T08:13:51;5.80;;;3.63;;
32790;SDS011;19143;59.322;14.502;2023-02-24T08:16:19;5.43;;;3.80;;
32790;SDS011;19143;59.322;14.502;2023-02-24T08:18:47;4.90;;;3.30;;
32790;SDS011;19143;59.322;14.502;2023-02-24T08:21:14;6.50;;;3.63;;
32790;SDS011;19143;59.322;14.502;2023-02-24T08:23:41;5.23;;;3.20;;
32790;SDS011;19143;59.322;14.502;2023-02-24T08:26:11;6.70;;;3.10;;
32790;SDS011;19143;59.322;14.502;2023-02-24T08:28:39;3.27;;;2.97;;
32790;SDS011;19143;59.322;14.502;2023-02-24T08:31:05;5.00;;;3.53;;
32790;SDS011;19143;59.322;14.502;2023-02-24T08:33:32;7.37;;;3.40;;
32790;SDS011;19143;59.322;14.502;2023-02-24T08:36:01;3.23;;;2.73;;
32790;SDS011;19143;59.322;14.502;2023-02-24T08:38:28;3.83;;;3.20;;
32790;SDS011;19143;59.322;14.502;2023-02-24T08:41:04;3.03;;;2.73;;
32790;SDS011;19143;59.322;14.502;2023-02-24T08:43:36;3.80;;;3.30;;
32790;SDS011;19143;59.322;14.502;2023-02-24T08:46:05;5.03;;;3.40;;
32790;SDS011;19143;59.322;14.502;2023-02-24T08:48:37;6.73;;;3.43;;
32790;SDS011;19143;59.322;14.502;2023-02-24T08:51:08;5.73;;;3.10;;
32790;SDS011;19143;59.322;14.502;2023-02-24T08:53:35;3.10;;;2.80;;
32790;SDS011;19143;59.322;14.502;2023-02-24T08:56:05;3.87;;;2.73;;
32790;SDS011;19143;59.322;14.502;2023-02-24T08:58:37;3.70;;;2.93;;
32790;SDS011;19143;59.322;14.502;2023-02-24T09:01:11;3.63;;;2.73;;
32790;SDS011;19143;59.322;14.502;2023-02-24T09:03:43;5.63;;;2.63;;
32790;SDS011;19143;59.322;14.502;2023-02-24T09:06:10;3.53;;;2.90;;
32790;SDS011;19143;59.322;14.502;2023-02-24T09:08:37;3.70;;;2.70;;
32790;SDS011;19143;59.322;14.502;2023-02-24T09:11:06;3.10;;;2.80;;
32790;SDS011;19143;59.322;14.502;2023-02-24T09:13:33;3.47;;;2.37;;
32790;SDS011;19143;59.322;14.502;2023-02-24T09:16:02;2.87;;;2.53;;
32790;SDS011;19143;59.322;14.502;2023-02-24T09:18:29;3.20;;;2.57;;
32790;SDS011;19143;59.322;14.502;2023-02-24T09:21:09;2.67;;;2.47;;
32790;SDS011;19143;59.322;14.502;2023-02-24T09:24:01;2.50;;;2.30;;
32790;SDS011;19143;59.322;14.502;2023-02-24T09:26:31;3.60;;;2.80;;
32790;SDS011;19143;59.322;14.502;2023-02-24T09:29:07;3.37;;;2.57;;
32790;SDS011;19143;59.322;14.502;2023-02-24T09:31:55;4.53;;;2.70;;
32790;SDS011;19143;59.322;14.502;2023-02-24T09:34:28;2.80;;;2.50;;
32790;SDS011;19143;59.322;14.502;2023-02-24T09:36:55;4.27;;;3.00;;
32790;SDS011;19143;59.322;14.502;2023-02-24T09:39:27;2.63;;;2.43;;
32790;SDS011;19143;59.322;14.502;2023-02-24T09:41:54;4.37;;;2.50;;
32790;SDS011;19143;59.322;14.502;2023-02-24T09:44:44;2.87;;;2.40;;
32790;SDS011;19143;59.322;14.502;2023-02-24T09:47:14;3.47;;;2.70;;
32790;SDS011;19143;59.322;14.502;2023-02-24T09:49:46;2.77;;;2.57;;
32790;SDS011;19143;59.322;14.502;2023-02-24T09:52:14;3.50;;;3.03;;
32790;SDS011;19143;59.322;14.502;2023-02-24T09:54:42;3.27;;;2.90;;
32790;SDS011;19143;59.322;14.502;2023-02-24T09:57:29;3.07;;;2.80;;
32790;SDS011;19143;59.322;14.502;2023-02-24T10:00:03;3.97;;;3.13;;
32790;SDS011;19143;59.322;14.502;2023-02-24T10:02:51;4.23;;;2.63;;
32790;SDS011;19143;59.322;14.502;2023-02-24T10:05:24;2.50;;;2.30;;
32790;SDS011;19143;59.322;14.502;2023-02-24T10:07:52;5.53;;;2.63;;
32790;SDS011;19143;59.322;14.502;2023-02-24T10:10:21;2.50;;;2.30;;
32790;SDS011;19143;59.322;14.502;2023-02-24T10:12:54;3.63;;;2.47;;
32790;SDS011;19143;59.322;14.502;2023-02-24T10:15:24;2.57;;;2.37;;
32790;SDS011;19143;59.322;14.502;2023-02-24T10:18:28;2.97;;;2.70;;
32790;SDS011;19143;59.322;14.502;2023-02-24T10:20:57;3.50;;;2.40;;
32790;SDS011;19143;59.322;14.502;2023-02-24T10:23:28;3.27;;;2.40;;
32790;SDS011;19143;59.322;14.502;2023-02-24T10:25:59;2.50;;;2.37;;
32790;SDS011;19143;59.322;14.502;2023-02-24T10:28:28;2.80;;;2.60;;
32790;SDS011;19143;59.322;14.502;2023-02-24T10:31:02;2.07;;;1.97;;
32790;SDS011;19143;59.322;14.502;2023-02-24T10:33:45;2.43;;;2.20;;
32790;SDS011;19143;59.322;14.502;2023-02-24T10:36:13;2.67;;;2.40;;
32790;SDS011;19143;59.322;14.502;2023-02-24T10:38:41;2.60;;;2.40;;
32790;SDS011;19143;59.322;14.502;2023-02-24T10:41:10;2.40;;;2.20;;
32790;SDS011;19143;59.322;14.502;2023-02-24T10:43:37;2.90;;;2.60;;
32790;SDS011;19143;59.322;14.502;2023-02-24T10:46:21;2.70;;;2.50;;
32790;SDS011;19143;59.322;14.502;2023-02-24T10:48:51;3.60;;;2.40;;
32790;SDS011;19143;59.322;14.502;2023-02-24T10:51:24;2.57;;;2.20;;
32790;SDS011;19143;59.322;14.502;2023-02-24T10:54:02;4.90;;;2.83;;
32790;SDS011;19143;59.322;14.502;2023-02-24T10:56:46;2.47;;;2.30;;
32790;SDS011;19143;59.322;14.502;2023-02-24T10:59:19;2.50;;;2.30;;
32790;SDS011;19143;59.322;14.502;2023-02-24T11:02:15;2.33;;;2.13;;
32790;SDS011;19143;59.322;14.502;2023-02-24T11:04:55;6.20;;;2.80;;
32790;SDS011;19143;59.322;14.502;2023-02-24T11:07:49;2.20;;;2.10;;
32790;SDS011;19143;59.322;14.502;2023-02-24T11:10:21;2.13;;;2.03;;
32790;SDS011;19143;59.322;14.502;2023-02-24T11:12:56;2.77;;;2.13;;
32790;SDS011;19143;59.322;14.502;2023-02-24T11:15:42;2.77;;;2.37;;
32790;SDS011;19143;59.322;14.502;2023-02-24T11:18:27;3.40;;;2.63;;
32790;SDS011;19143;59.322;14.502;2023-02-24T11:20:56;3.30;;;2.50;;
32790;SDS011;19143;59.322;14.502;2023-02-24T11:23:28;2.80;;;2.60;;
32790;SDS011;19143;59.322;14.502;2023-02-24T11:25:57;4.03;;;2.27;;
32790;SDS011;19143;59.322;14.502;2023-02-24T11:28:31;3.13;;;2.60;;
32790;SDS011;19143;59.322;14.502;2023-02-24T11:31:02;3.10;;;2.47;;
32790;SDS011;19143;59.322;14.502;2023-02-24T11:33:32;2.53;;;2.33;;
32790;SDS011;19143;59.322;14.502;2023-02-24T11:36:11;2.27;;;2.07;;
32790;SDS011;19143;59.322;14.502;2023-02-24T11:38:43;4.03;;;2.27;;
32790;SDS011;19143;59.322;14.502;2023-02-24T11:41:13;2.80;;;2.60;;
32790;SDS011;19143;59.322;14.502;2023-02-24T11:43:42;2.70;;;2.50;;
32790;SDS011;19143;59.322;14.502;2023-02-24T11:46:11;2.63;;;2.43;;
32790;SDS011;19143;59.322;14.502;2023-02-24T11:53:54;2.30;;;2.20;;
32790;SDS011;19143;59.322;14.502;2023-02-24T11:56:35;3.53;;;2.60;;
32790;SDS011;19143;59.322;14.502;2023-02-24T11:59:04;2.50;;;2.30;;
32790;SDS011;19143;59.322;14.502;2023-02-24T12:01:34;3.17;;;2.50;;
32790;SDS011;19143;59.322;14.502;2023-02-24T12:04:09;6.13;;;2.70;;
32790;SDS011;19143;59.322;14.502;2023-02-24T12:06:41;2.70;;;2.37;;
32790;SDS011;19143;59.322;14.502;2023-02-24T12:09:16;2.60;;;2.40;;
32790;SDS011;19143;59.322;14.502;2023-02-24T12:11:45;2.30;;;2.20;;
32790;SDS011;19143;59.322;14.502;2023-02-24T12:14:20;3.03;;;2.50;;
32790;SDS011;19143;59.322;14.502;2023-02-24T12:16:53;2.70;;;2.50;;
32790;SDS011;19143;59.322;14.502;2023-02-24T12:19:24;2.50;;;2.27;;
32790;SDS011;19143;59.322;14.502;2023-02-24T12:21:52;2.30;;;2.10;;
32790;SDS011;19143;59.322;14.502;2023-02-24T12:24:22;2.20;;;2.10;;
32790;SDS011;19143;59.322;14.502;2023-02-24T12:26:51;3.00;;;2.10;;
32790;SDS011;19143;59.322;14.502;2023-02-24T12:29:29;2.07;;;1.97;;
32790;SDS011;19143;59.322;14.502;2023-02-24T12:32:01;2.30;;;2.20;;
32790;SDS011;19143;59.322;14.502;2023-02-24T12:34:33;2.30;;;2.07;;
32790;SDS011;19143;59.322;14.502;2023-02-24T12:37:14;3.33;;;3.00;;
32790;SDS011;19143;59.322;14.502;2023-02-24T12:39:48;3.43;;;2.83;;
32790;SDS011;19143;59.322;14.502;2023-02-24T12:42:20;5.27;;;4.13;;
32790;SDS011;19143;59.322;14.502;2023-02-24T12:44:50;4.27;;;3.63;;
32790;SDS011;19143;59.322;14.502;2023-02-24T12:47:20;7.07;;;4.47;;
32790;SDS011;19143;59.322;14.502;2023-02-24T12:50:01;7.03;;;4.70;;
32790;SDS011;19143;59.322;14.502;2023-02-24T12:52:33;10.23;;;5.33;;
32790;SDS011;19143;59.322;14.502;2023-02-24T12:55:07;10.13;;;5.40;;
32790;SDS011;19143;59.322;14.502;2023-02-24T12:57:42;9.40;;;5.80;;
32790;SDS011;19143;59.322;14.502;2023-02-24T13:00:13;6.70;;;4.43;;
32790;SDS011;19143;59.322;14.502;2023-02-24T13:02:43;10.17;;;5.33;;
32790;SDS011;19143;59.322;14.502;2023-02-24T13:05:15;6.43;;;4.60;;
32790;SDS011;19143;59.322;14.502;2023-02-24T13:07:48;8.13;;;5.50;;
32790;SDS011;19143;59.322;14.502;2023-02-24T13:10:23;7.80;;;5.20;;
32790;SDS011;19143;59.322;14.502;2023-02-24T13:13:04;8.03;;;4.77;;
32790;SDS011;19143;59.322;14.502;2023-02-24T13:15:36;8.33;;;4.13;;
32790;SDS011;19143;59.322;14.502;2023-02-24T13:18:21;9.47;;;3.97;;
32790;SDS011;19143;59.322;14.502;2023-02-24T13:20:48;6.20;;;3.63;;
32790;SDS011;19143;59.322;14.502;2023-02-24T13:23:17;5.20;;;3.50;;
32790;SDS011;19143;59.322;14.502;2023-02-24T13:25:50;5.03;;;2.83;;
32790;SDS011;19143;59.322;14.502;2023-02-24T13:28:21;2.90;;;2.70;;
32790;SDS011;19143;59.322;14.502;2023-02-24T13:30:56;3.40;;;3.10;;
32790;SDS011;19143;59.322;14.502;2023-02-24T13:33:27;2.17;;;2.07;;
32790;SDS011;19143;59.322;14.502;2023-02-24T13:38:48;2.83;;;2.57;;
32790;SDS011;19143;59.322;14.502;2023-02-24T13:41:33;2.67;;;2.47;;
32790;SDS011;19143;59.322;14.502;2023-02-24T13:44:25;3.13;;;2.87;;
32790;SDS011;19143;59.322;14.502;2023-02-24T13:47:07;5.33;;;3.57;;
32790;SDS011;19143;59.322;14.502;2023-02-24T13:49:37;4.37;;;2.80;;
32790;SDS011;19143;59.322;14.502;2023-02-24T13:52:11;3.57;;;2.47;;
32790;SDS011;19143;59.322;14.502;2023-02-24T13:54:53;2.73;;;2.40;;
32790;SDS011;19143;59.322;14.502;2023-02-24T14:00:17;3.17;;;2.77;;
32790;SDS011;19143;59.322;14.502;2023-02-24T14:02:46;3.30;;;2.17;;
32790;SDS011;19143;59.322;14.502;2023-02-24T14:05:18;2.30;;;2.20;;
32790;SDS011;19143;59.322;14.502;2023-02-24T14:07:46;2.27;;;2.07;;
32790;SDS011;19143;59.322;14.502;2023-02-24T14:10:16;2.10;;;2.00;;
32790;SDS011;19143;59.322;14.502;2023-02-24T14:12:43;3.23;;;2.33;;
32790;SDS011;19143;59.322;14.502;2023-02-24T14:15:11;2.87;;;2.43;;
32790;SDS011;19143;59.322;14.502;2023-02-24T14:17:40;2.50;;;2.30;;
32790;SDS011;19143;59.322;14.502;2023-02-24T14:20:10;2.10;;;2.00;;
32790;SDS011;19143;59.322;14.502;2023-02-24T14:22:42;2.43;;;1.90;;
32790;SDS011;19143;59.322;14.502;2023-02-24T14:25:13;2.70;;;2.50;;
32790;SDS011;19143;59.322;14.502;2023-02-24T14:27:41;2.13;;;1.93;;
32790;SDS011;19143;59.322;14.502;2023-02-24T14:30:19;2.10;;;2.00;;
32790;SDS011;19143;59.322;14.502;2023-02-24T14:32:48;2.93;;;2.60;;
32790;SDS011;19143;59.322;14.502;2023-02-24T14:35:18;3.20;;;2.00;;
32790;SDS011;19143;59.322;14.502;2023-02-24T14:37:45;2.20;;;2.00;;
32790;SDS011;19143;59.322;14.502;2023-02-24T14:40:13;2.53;;;2.20;;
32790;SDS011;19143;59.322;14.502;2023-02-24T14:42:45;2.30;;;2.17;;
32790;SDS011;19143;59.322;14.502;2023-02-24T14:45:14;2.20;;;1.90;;
32790;SDS011;19143;59.322;14.502;2023-02-24T14:47:42;2.20;;;2.10;;
32790;SDS011;19143;59.322;14.502;2023-02-24T14:50:15;2.10;;;2.00;;
32790;SDS011;19143;59.322;14.502;2023-02-24T14:52:43;1.93;;;1.83;;
32790;SDS011;19143;59.322;14.502;2023-02-24T14:55:12;2.10;;;2.00;;
32790;SDS011;19143;59.322;14.502;2023-02-24T14:57:42;2.23;;;2.13;;
32790;SDS011;19143;59.322;14.502;2023-02-24T15:00:12;1.90;;;1.80;;
32790;SDS011;19143;59.322;14.502;2023-02-24T15:02:47;2.10;;;2.00;;
32790;SDS011;19143;59.322;14.502;2023-02-24T15:05:17;2.00;;;1.90;;
32790;SDS011;19143;59.322;14.502;2023-02-24T15:07:44;4.17;;;3.20;;
32790;SDS011;19143;59.322;14.502;2023-02-24T15:10:16;5.27;;;3.00;;
32790;SDS011;19143;59.322;14.502;2023-02-24T15:12:45;5.17;;;3.40;;
32790;SDS011;19143;59.322;14.502;2023-02-24T15:15:17;5.63;;;3.83;;